Map

Track Data

SID SEASON NUMBER BASIN SUBBASIN NAME ISO_TIME NATURE LAT LON WMO_WIND WMO_PRES WMO_AGENCY TRACK_TYPE DIST2LAND LANDFALL IFLAG USA_AGENCY USA_ATCF_ID USA_LAT USA_LON USA_RECORD USA_STATUS USA_WIND USA_PRES USA_SSHS USA_R34_NE USA_R34_SE USA_R34_SW USA_R34_NW USA_R50_NE USA_R50_SE USA_R50_SW USA_R50_NW USA_R64_NE USA_R64_SE USA_R64_SW USA_R64_NW USA_POCI USA_ROCI USA_RMW USA_EYE TOKYO_LAT TOKYO_LON TOKYO_GRADE TOKYO_WIND TOKYO_PRES TOKYO_R50_DIR TOKYO_R50_LONG TOKYO_R50_SHORT TOKYO_R30_DIR TOKYO_R30_LONG TOKYO_R30_SHORT TOKYO_LAND CMA_LAT CMA_LON CMA_CAT CMA_WIND CMA_PRES HKO_LAT HKO_LON HKO_CAT HKO_WIND HKO_PRES NEWDELHI_LAT NEWDELHI_LON NEWDELHI_GRADE NEWDELHI_WIND NEWDELHI_PRES NEWDELHI_CI NEWDELHI_DP NEWDELHI_POCI REUNION_LAT REUNION_LON REUNION_TYPE REUNION_WIND REUNION_PRES REUNION_TNUM REUNION_CI REUNION_RMW REUNION_R34_NE REUNION_R34_SE REUNION_R34_SW REUNION_R34_NW REUNION_R50_NE REUNION_R50_SE REUNION_R50_SW REUNION_R50_NW REUNION_R64_NE REUNION_R64_SE REUNION_R64_SW REUNION_R64_NW BOM_LAT BOM_LON BOM_TYPE BOM_WIND BOM_PRES BOM_TNUM BOM_CI BOM_RMW BOM_R34_NE BOM_R34_SE BOM_R34_SW BOM_R34_NW BOM_R50_NE BOM_R50_SE BOM_R50_SW BOM_R50_NW BOM_R64_NE BOM_R64_SE BOM_R64_SW BOM_R64_NW BOM_ROCI BOM_POCI BOM_EYE BOM_POS_METHOD BOM_PRES_METHOD NADI_LAT NADI_LON NADI_CAT NADI_WIND NADI_PRES WELLINGTON_LAT WELLINGTON_LON WELLINGTON_WIND WELLINGTON_PRES DS824_LAT DS824_LON DS824_STAGE DS824_WIND DS824_PRES TD9636_LAT TD9636_LON TD9636_STAGE TD9636_WIND TD9636_PRES TD9635_LAT TD9635_LON TD9635_WIND TD9635_PRES TD9635_ROCI NEUMANN_LAT NEUMANN_LON NEUMANN_CLASS NEUMANN_WIND NEUMANN_PRES MLC_LAT MLC_LON MLC_CLASS MLC_WIND MLC_PRES USA_GUST BOM_GUST BOM_GUST_PER REUNION_GUST REUNION_GUST_PER USA_SEAHGT USA_SEARAD_NE USA_SEARAD_SE USA_SEARAD_SW USA_SEARAD_NW STORM_SPEED STORM_DIR
1939019S16039 1939 6 SI MM NOT_NAMED 1939-01-19 06:00:00 NR -16.1000 38.7000 reunion main 0 0 _____O________ -1 -16.1000 38.7000 99 9.90000 2 77
1939019S16039 1939 6 SI MM NOT_NAMED 1939-01-19 09:00:00 NR -16.0824 38.7782 main 0 0 _____P________ -1 -16.0824 38.7782 99 2 78
1939019S16039 1939 6 SI MM NOT_NAMED 1939-01-19 12:00:00 NR -16.0676 38.8620 main 0 0 _____P________ -1 -16.0676 38.8620 99 2 82
1939019S16039 1939 6 SI MM NOT_NAMED 1939-01-19 15:00:00 NR -16.0587 38.9571 main 0 0 _____P________ -1 -16.0587 38.9571 99 2 87
1939019S16039 1939 6 SI MM NOT_NAMED 1939-01-19 18:00:00 NR -16.0583 39.0691 main 0 0 _____P________ -1 -16.0583 39.0691 99 2 93
1939019S16039 1939 6 SI MM NOT_NAMED 1939-01-19 21:00:00 NR -16.0694 39.2037 main 0 0 _____P________ -1 -16.0694 39.2037 99 4 92
1939019S16039 1939 6 SI MM NOT_NAMED 1939-01-20 00:00:00 TS -16.0759 39.4932 main 0 0 _____P___O____ -1 -16.0949 39.3665 99 -16.0000 40.0000 TC 25 6 95
1939019S16039 1939 6 SI MM NOT_NAMED 1939-01-20 03:00:00 TS -16.1217 39.8456 main 0 0 _____P___P____ -1 -16.1375 39.5634 99 -16.0902 40.4099 TC 25 7 98
1939019S16039 1939 6 SI MM NOT_NAMED 1939-01-20 06:00:00 TS -16.1750 40.2000 reunion main 21 21 _____O___OO___ -1 -16.2000 39.8000 99 9.90000 -16.2000 40.8000 TC 25 -16.0000 40.0000 1 7 102
1939019S16039 1939 6 SI MM NOT_NAMED 1939-01-20 09:00:00 TS -16.2742 40.5711 main 61 61 _____P___PP___ -1 -16.2843 40.0790 99 -16.3424 41.1575 TC 25 -16.1177 40.3825 1 7 108
1939019S16039 1939 6 SI MM NOT_NAMED 1939-01-20 12:00:00 TS -16.3881 40.8953 main 92 92 _____P___OP___ -1 -16.3887 40.3904 99 -16.5000 41.5000 TC 25 -16.2380 40.7622 1 7 110
1939019S16039 1939 6 SI MM NOT_NAMED 1939-01-20 15:00:00 TS -16.5033 41.2406 main 123 123 _____P___PP___ -1 -16.5106 40.7211 99 -16.6350 41.8651 TC 25 -16.3643 41.1358 1 7 112
1939019S16039 1939 6 SI MM NOT_NAMED 1939-01-20 18:00:00 TS -16.6492 41.5859 main 163 163 _____P___OO___ -1 -16.6476 41.0578 99 -16.8000 42.2000 TC 25 -16.5000 41.5000 1 7 117
1939019S16039 1939 6 SI MM NOT_NAMED 1939-01-20 21:00:00 TS -16.8224 41.9058 main 202 189 _____P___PP___ -1 -16.7973 41.3874 99 -17.0200 42.4800 TC 25 -16.6499 41.8501 1 7 123
1939019S16039 1939 6 SI MM NOT_NAMED 1939-01-21 00:00:00 TS -17.0275 42.1906 main 189 162 _____P___OP___ -1 -16.9575 41.6966 99 -17.3000 42.7000 TC 25 -16.8250 42.1751 1 7 131
1939019S16039 1939 6 SI MM NOT_NAMED 1939-01-21 03:00:00 TS -17.2636 42.4357 main 160 137 _____P___PP___ -1 -17.1257 41.9719 99 -17.6275 42.8726 TC 25 -17.0375 42.4626 1 7 140
1939019S16039 1939 6 SI MM NOT_NAMED 1939-01-21 06:00:00 TS -17.5333 42.6333 reunion main 137 121 _____O___OO___ -1 -17.3000 42.2000 99 9.90000 -18.0000 43.0000 TC 25 -17.3000 42.7000 1 7 151
1939019S16039 1939 6 SI MM NOT_NAMED 1939-01-21 09:00:00 TS -17.8315 42.7692 main 121 116 _____P___PP___ -1 -17.4701 42.3357 99 -18.4000 43.1001 TC 25 -17.6244 42.8716 1 7 159
1939019S16039 1939 6 SI MM NOT_NAMED 1939-01-21 12:00:00 TS -18.1488 42.8742 main 116 105 _____P___OP___ -1 -17.6492 42.4271 99 -18.8000 43.2000 TC 25 -17.9972 42.9955 1 7 163
1939019S16039 1939 6 SI MM NOT_NAMED 1939-01-21 15:00:00 TS -18.4605 42.9738 main 106 100 _____P___PP___ -1 -17.8352 42.4821 99 -19.1500 43.3426 TC 25 -18.3964 43.0967 1 7 163
1939019S16039 1939 6 SI MM NOT_NAMED 1939-01-21 18:00:00 TS -18.7754 43.0697 main 104 104 _____P___OO___ -1 -18.0262 42.5090 99 -19.5000 43.5000 TC 25 -18.8000 43.2000 1 7 163
1939019S16039 1939 6 SI MM NOT_NAMED 1939-01-21 21:00:00 TS -19.1258 43.1864 main 105 97 _____P___PP___ -1 -18.2202 42.5160 99 -19.9375 43.6723 TC 25 -19.2198 43.3708 1 7 163
1939019S16039 1939 6 SI MM NOT_NAMED 1939-01-22 00:00:00 TS -19.4493 43.2852 main 100 100 _____P___OP___ -1 -18.4152 42.5113 99 -20.3000 43.8000 TC 25 -19.6326 43.5443 1 6 165
1939019S16039 1939 6 SI MM NOT_NAMED 1939-01-22 03:00:00 TS -19.6861 43.3430 main 115 99 _____P___PP___ -1 -18.6091 42.5032 99 -20.4450 43.8301 TC 25 -20.0041 43.6958 1 4 170
1939019S16039 1939 6 SI MM NOT_NAMED 1939-01-22 06:00:00 TS -19.8667 43.3667 reunion main 99 91 _____O___OO___ -1 -18.8000 42.5000 99 9.90000 -20.5000 43.8000 TC 25 -20.3000 43.8000 1 3 176
1939019S16039 1939 6 SI MM NOT_NAMED 1939-01-22 09:00:00 TS -19.9968 43.3620 main 91 85 _____P___PP___ -1 -18.9862 42.5083 99 -20.5700 43.7425 TC 25 -20.4465 43.8096 1 3 184
1939019S16039 1939 6 SI MM NOT_NAMED 1939-01-22 12:00:00 TS -20.1225 43.3468 main 94 76 _____P___OP___ -1 -19.1679 42.5282 99 -20.7000 43.7000 TC 25 -20.5224 43.7732 1 3 0
1939019S16039 1939 6 SI MM NOT_NAMED 1939-01-22 15:00:00 TS -20.2906 43.3511 main 76 61 _____P___PP___ -1 -19.3458 42.5581 99 -20.9700 43.7275 TC 25 -20.5871 43.7252 1 4 173
1939019S16039 1939 6 SI MM NOT_NAMED 1939-01-22 18:00:00 TS -20.4950 43.3785 main 61 53 _____P___OO___ -1 -19.5205 42.5963 99 -21.3000 43.8000 TC 25 -20.7000 43.7000 1 4 169
1939019S16039 1939 6 SI MM NOT_NAMED 1939-01-22 21:00:00 TS -20.6825 43.4395 main 53 31 _____P___PP___ -1 -19.6927 42.6413 99 -21.5250 43.9001 TC 30 -20.8654 43.7464 1 6 161
1939019S16039 1939 6 SI MM NOT_NAMED 1939-01-23 00:00:00 TS -21.0444 43.5831 main 31 0 _____P___OP___ -1 -19.8629 42.6913 99 -21.9000 44.0000 TC 35 -21.0977 43.8203 1 10 164
1939019S16039 1939 6 SI MM NOT_NAMED 1939-01-23 03:00:00 TS -21.6280 43.7344 main 0 0 _____P___PP___ -1 -20.0318 42.7448 99 -22.6325 44.0502 TC 35 -21.4311 43.9090 1 14 168
1939019S16039 1939 6 SI MM NOT_NAMED 1939-01-23 06:00:00 TS -22.4222 43.9111 reunion main 0 0 _____O___OO___ -1 -20.2000 42.8000 99 9.90000 -23.5000 44.1000 TC 35 -21.9000 44.0000 2 18 170
1939019S16039 1939 6 SI MM NOT_NAMED 1939-01-23 09:00:00 TS -23.4194 44.0859 main 0 0 _________PP___ -1 99 -24.2723 44.1556 TC 35 -22.5665 44.0162 2 18 172
1939019S16039 1939 6 SI MM NOT_NAMED 1939-01-23 12:00:00 TS -24.1797 44.1705 main 0 0 _________OP___ -1 99 -25.0000 44.3000 TC 35 -23.3593 44.0409 2 15 171
1939019S16039 1939 6 SI MM NOT_NAMED 1939-01-23 15:00:00 TS -24.9387 44.3513 main 0 0 _________PP___ -1 99 -25.6798 44.5827 TC 35 -24.1975 44.1199 2 15 164
1939019S16039 1939 6 SI MM NOT_NAMED 1939-01-23 18:00:00 TS -25.6500 44.6500 main 30 30 _________OO___ -1 99 -26.3000 45.0000 TC 35 -25.0000 44.3000 2 15 153
1939019S16039 1939 6 SI MM NOT_NAMED 1939-01-23 21:00:00 TS -26.2935 45.1006 main 78 78 _________PP___ -1 99 -26.8954 45.5495 TC 35 -25.6917 44.6518 2 15 145
1939019S16039 1939 6 SI MM NOT_NAMED 1939-01-24 00:00:00 TS -26.8643 45.6033 main 145 145 _________OP___ -1 99 -27.4000 46.1000 TC 35 -26.3286 45.1066 2 13 141
1939019S16039 1939 6 SI MM NOT_NAMED 1939-01-24 03:00:00 TS -27.3403 46.0409 main 196 196 _________PP___ -1 99 -27.7796 46.4735 TC 35 -26.9011 45.6084 2 12 140
1939019S16039 1939 6 SI MM NOT_NAMED 1939-01-24 06:00:00 TS -27.7500 46.4500 reunion main 254 261 _________OO___ -1 -28.1000 46.8000 TC 35 -27.4000 46.1000 2 11 139
1939019S16039 1939 6 SI MM NOT_NAMED 1939-01-24 09:00:00 TS -28.1512 46.8512 main 321 321 _________PP___ -1 -28.4650 47.2000 TC 35 -27.8375 46.5025 2 10 137
1939019S16039 1939 6 SI MM NOT_NAMED 1939-01-24 12:00:00 TS -28.5021 47.2411 main 364 364 _________OP___ -1 -28.8000 47.6000 TC 35 -28.2042 46.8822 2 9 134
1939019S16039 1939 6 SI MM NOT_NAMED 1939-01-24 15:00:00 TS -28.7918 47.6018 main 409 409 _________PP___ -1 -29.0648 47.9579 TC 35 -28.5188 47.2458 2 8 131
1939019S16039 1939 6 SI MM NOT_NAMED 1939-01-24 18:00:00 TS -29.0500 47.9500 main 440 438 _________OO___ -1 -29.3000 48.3000 TC 35 -28.8000 47.6000 2 8 130
1939019S16039 1939 6 SI MM NOT_NAMED 1939-01-24 21:00:00 TS -29.2982 48.2814 main 481 481 _________PP___ -1 -29.5347 48.6281 TC 35 -29.0616 47.9348 2 8 130
1939019S16039 1939 6 SI MM NOT_NAMED 1939-01-25 00:00:00 TS -29.5494 48.6327 main 511 511 _________OP___ -1 -29.8000 49.0000 TC 35 -29.2987 48.2654 2 9 129
1939019S16039 1939 6 SI MM NOT_NAMED 1939-01-25 03:00:00 TS -29.8358 49.0453 main 557 557 _________PP___ -1 -30.1350 49.4775 TC 35 -29.5365 48.6132 2 10 129
1939019S16039 1939 6 SI MM NOT_NAMED 1939-01-25 06:00:00 TS -30.1500 49.5000 reunion main 608 618 _________OO___ -1 -30.5000 50.0000 TC 35 -29.8000 49.0000 2 10 129
1939019S16039 1939 6 SI MM NOT_NAMED 1939-01-25 09:00:00 TS -30.4975 49.9782 main 669 669 _________PP___ -1 -30.8573 50.5002 TC 35 -30.1376 49.4561 2 11 130
1939019S16039 1939 6 SI MM NOT_NAMED 1939-01-25 12:00:00 TS -30.8501 50.4769 main 732 732 _________OP___ -1 -31.2000 51.0000 TC 35 -30.5002 49.9539 2 11 129
1939019S16039 1939 6 SI MM NOT_NAMED 1939-01-25 15:00:00 TS -31.1924 50.9876 main 785 785 _________PP___ -1 -31.5223 51.5002 TC 35 -30.8625 50.4749 2 10 127
1939019S16039 1939 6 SI MM NOT_NAMED 1939-01-25 18:00:00 TS -31.4571 51.4286 main 833 833 _________OO___ -1 -31.8000 52.0000 TC 35 -31.2000 51.0000 2 9 123
1939019S16039 1939 6 SI MM NOT_NAMED 1939-01-25 21:00:00 TS -31.6687 51.8420 main 873 873 _________PP___ -1 -32.0179 52.4997 TC 35 -31.4942 51.5132 2 8 120
1939019S16039 1939 6 SI MM NOT_NAMED 1939-01-26 00:00:00 TS -31.8632 52.2609 main 918 918 _________OP___ -1 -32.2000 53.0000 TC 35 -31.7509 52.0145 2 6 119
1939019S16039 1939 6 SI MM NOT_NAMED 1939-01-26 03:00:00 NR -31.9823 52.5086 main 938 938 __________P___ -1 TC -31.9823 52.5086 2 7 118
1939019S16039 1939 6 SI MM NOT_NAMED 1939-01-26 06:00:00 NR -32.2000 53.0000 reunion main 984 __________O___ -1 -32.2000 53.0000 2 9 118

About IBTrACS Database

This database is a web-friendly format of International Best Track Archive for Climate Stewardship (IBTrACS), a global best track data archive curated by NOAA dating back to 1842.

Updated: 2021-10-27